x

Portlock Bank- 76nm Ene Of Kodiak, Ak (46080) Weather Station

9:50pm - Wed 2nd Sep 2015 All times are AKDT. -8 hours from GMT.

  • Wind
    7mph
  • Sea Temp 51°f
  • Air Temp 52°f
  • Sea Pressure 1016.4mb
  • Portlock Bank- 76nm Ene Of Kodiak, Ak
  • Portlock Bank- 76nm Ene Of Kodiak, Ak

More Historic Weather Station data

Upgrade to MSW Pro to gain access to the past 30 days of data for over 8000 Wavebouys and Weather Stations around the globe.

Join Pro

Comparision Forecast

View Surf forecast
   
Wed 09/02 9:50pm  -   -   -  7
mph
1016.4mb 51f 52f
8:50pm  -   -   -  9 11 mph 1016.3mb 51f 52f
7:50pm 2.5ft 14s 5s 7 9 mph 1016.2mb 51f 52f
6:50pm 2.5ft 14s 5s 7 9 mph 1016.3mb 51f 52f
5:50pm 2.5ft 14s 5s 9
mph
1016.3mb 52f 52f
4:50pm 2.5ft 14s 5s 9 11 mph 1016.5mb 51f 52f
3:50pm 2ft 13s 6s 7 9 mph 1016.6mb 51f 53f
2:50pm 2.5ft 14s 6s 7 9 mph 1016.6mb 51f 53f
1:50pm 2.5ft 13s 6s 4 7 mph 1016.9mb 51f 53f
12:50pm 3ft 14s 6s 7
mph
1017mb 52f 53f
11:50am 2.5ft 14s 5s 7
mph
1016.9mb 52f 53f
10:50am 2.5ft 13s 5s 4 7 mph 1016.9mb 51f 52f
9:50am 2.5ft 13s 4s 9
mph
1016.9mb 51f 53f
8:50am 3ft 15s 4s 9
mph
1016.6mb 51f 52f
7:50am 3ft 4s 4s 9 11 mph 1016.2mb 51f 52f
6:50am 3ft 14s 5s 9 11 mph 1016.2mb 51f 52f
5:50am 3.5ft 5s 5s 9 11 mph 1016.1mb 51f 52f
4:50am 3ft 6s 5s 9
mph
1016mb 51f 52f
3:50am 3.5ft 6s 5s 13 16 mph 1015.9mb 51f 52f
2:50am 3.5ft 7s 5s 9 11 mph 1016mb 51f 52f
1:50am 3.5ft 6s 5s 11 13 mph 1016mb 51f 53f
12:50am 4.5ft 6s 5s 13 16 mph 1015.9mb 51f 52f
Tue 09/01 11:50pm 4.5ft 5s 5s 13 16 mph 1015.9mb 51f 52f
10:50pm 5ft 6s 4s 13 16 mph 1015.7mb 51f 52f
9:50pm 5ft 6s 4s 16 18 mph 1015.5mb 51f 53f
8:50pm 6ft 6s 4s 18 20 mph 1015.2mb 51f 53f
7:50pm 7ft 6s 5s 18 20 mph 1014.9mb 51f 53f
6:50pm 8ft 6s 5s 20 25 mph 1014.3mb 51f 53f
5:50pm 7ft 7s 5s 20 25 mph 1014.4mb 51f 52f
4:50pm 7.5ft 7s 5s 20 25 mph 1014.5mb 51f 52f
3:50pm 7ft 8s 6s 18 22 mph 1014.3mb 51f 52f
2:50pm 7.5ft 8s 6s 20 27 mph 1013.9mb 51f 51f
1:50pm 8ft 8s 6s 22 27 mph 1013.8mb 51f 51f
12:50pm 8.5ft 8s 6s 22 27 mph 1013.7mb 51f 52f
11:50am 8ft 8s 5s 25 29 mph 1013.4mb 51f 52f
10:50am 9.5ft 7s 5s 25 31 mph 1013mb 51f 52f
9:50am 8.5ft 7s 5s 25 29 mph 1012.6mb 51f 51f
8:50am 9ft 7s 5s 27 31 mph 1012.1mb 50f 51f
7:50am 10ft 7s 5s 25 31 mph 1011.7mb 50f 51f
6:50am 10ft 7s 5s 25 31 mph 1011.3mb 51f 51f
5:50am 10ft 8s 6s 27 31 mph 1011.1mb 51f 51f
4:50am 10ft 8s 6s 27 34 mph 1010.7mb 51f 51f
3:50am 9.5ft 8s 6s 25 29 mph 1010.6mb 51f 52f
2:50am 9.5ft 7s 6s 25 31 mph 1010.2mb 51f 52f
1:50am 10ft 9s 7s 25 29 mph 1010mb 51f 52f
12:50am 11ft 8s 7s 25 31 mph 1009.8mb 52f 52f
Mon 08/31 11:50pm 11ft 8s 7s 27 31 mph 1009.6mb 51f 52f
10:50pm 11ft 8s 6s 27 34 mph 1009.1mb 51f 52f
9:50pm 10.5ft 8s 6s 27 31 mph 1008.4mb 51f 52f
8:50pm 12ft 8s 6s 27 34 mph 1007.7mb 50f 52f
7:50pm 13ft 8s 6s 31 38 mph 1006.8mb 50f 52f
6:50pm 12ft 8s 6s 31 38 mph 1005.9mb 50f 51f
5:50pm 15.5ft 9s 7s 31 40 mph 1004.8mb 50f 51f
4:50pm 14.5ft 9s 7s 31 40 mph 1004.2mb 50f 51f
3:50pm 17.5ft 9s 7s 34 45 mph 1003.3mb 50f 50f
2:50pm 17.5ft 10s 8s 36 43 mph 1002.5mb 51f 50f
1:50pm 15.5ft 10s 8s 31 40 mph 1001.9mb 51f 50f
12:50pm 16.5ft 11s 8s 34 45 mph 1001.2mb 51f 49f
11:50am 16ft 10s 8s 34 43 mph 1000.5mb 51f 49f
10:50am 16ft 9s 7s 38 45 mph 999.5mb 51f 49f
9:50am 13.5ft 9s 6s 40 51 mph 999.4mb 51f 48f
8:50am 15.5ft 9s 6s 40 49 mph 998.8mb 50f 49f
7:50am 15ft 9s 6s 38 47 mph 998.7mb 50f 49f
6:50am 16ft 9s 6s 38 49 mph 998.6mb 50f 49f
5:50am 16.5ft 8s 7s 36 45 mph 998.3mb 50f 50f
4:50am 16.5ft 9s 7s 38 47 mph 998.2mb 50f 50f
3:50am 15.5ft 9s 7s 38 49 mph 997.5mb 51f 51f
2:50am 15.5ft 10s 7s 38 47 mph 997.4mb 51f 51f
1:50am 17ft 10s 8s 34 43 mph 997.2mb 50f 51f
12:50am 15.5ft 10s 8s 34 40 mph 996.9mb 50f 51f
Sun 08/30 11:50pm 15ft 9s 7s 34 40 mph 996.4mb 51f 51f
10:50pm 14ft 9s 7s 36 47 mph 996.3mb 51f 51f
9:50pm 14.5ft 9s 6s 36 45 mph 996.4mb 51f 51f
8:50pm 15.5ft 9s 6s 38 47 mph 995.8mb 51f 51f
7:50pm 16.5ft 9s 7s 38 47 mph 995.2mb 51f 51f
6:50pm 16ft 9s 6s 38 47 mph 995.4mb 50f 51f
5:50pm 17.5ft 9s 7s 38 49 mph 994.7mb 50f 50f
4:50pm 16.5ft 9s 7s 38 49 mph 994.6mb 50f 50f
3:50pm 15.5ft 10s 7s 36 43 mph 994.2mb 50f 50f
2:50pm 16.5ft 10s 8s 36 45 mph 993.8mb 50f 50f
1:50pm 15.5ft 11s 8s 31 43 mph 993.8mb 51f 50f
12:50pm 18ft 10s 8s 34 43 mph 993.6mb 51f 49f
11:50am 16.5ft 10s 8s 34 45 mph 992.9mb 51f 49f
10:50am 16ft 9s 7s 36 45 mph 992.6mb 51f 49f
9:50am 17.5ft 10s 7s 38 45 mph 992.2mb 51f 50f
8:50am 14ft 10s 6s 36 47 mph 992mb 52f 50f
7:50am 16.5ft 9s 7s 36 45 mph 991.6mb 52f 50f